Airfield :
LOGIN :

Register | Disclaimer

   EN    FR    IT 

 










Legend :    VFR   Marginal VFR   IFR   Intensive IFR   Very Intensive IFR
Visi :
Ceiling :
>= 8 km
>= 3000ft
5 to 8 km
1000 to 3000 ft
1500m to 5 km
500 to 1000 ft
800 to 1500m
200 to 500 ft
< 800m
< 200 ft
Symbols :   Thunderstorms  Fog  Heavy snow  Heavy precipitations  Wind > 20 kt
SIGMETs :     Misc.  Thunderstorms  Icing  Turbulence  Mountain Waves  Volcanic Ashes






- Airport Elevation : 308 ft
- IATA code : MHG


EDFM - Mannheim-City

CURRENT METAR :
  • 051150Z 02010KT 9999 FEW024 SCT029 BKN063 06/00 Q1025

EXPIRED METARs :
  • 051120Z 36009KT 9999 FEW022 SCT031 BKN062 06/01 Q1025
  • 051050Z 36009KT 9999 SCT020 BKN061 06/00 Q1024
  • 051020Z 02008KT 340V050 9999 SCT018 BKN056 05/01 Q1024
  • 050950Z 36008KT 9999 FEW017 SCT031 OVC057 05/01 Q1024

TAF TAF EDFM
Valid from the 05 at 12:00 until the 05 at 21:00 UTC


051100Z 0512/0521 01008KT 9999 SCT025



MET'MAP, your aeronautical weather chart ! - Copyright ORBIFLY December 2007 - Disclaimer

ORBIFLY MET'MAP TEAM :

Programming & Development : Alexandra Zaïnal
Concept & original design : Baudouin d'Aumeries
Assistance for programming : Marc-Olivier Méhu
Technical & hardware support : Manuel Goepfert

Contact : metmap@orbifly.com




SOURCES & CREDITS :

   NOAA